sensor_id;sensor_type;location;lat;lon;timestamp;pressure;altitude;pressure_sealevel;temperature;humidity
73941;BME280;62294;48.554;10.202;2023-04-25T00:02:16;92212.13;;;4.96;100.00
73941;BME280;62294;48.554;10.202;2023-04-25T00:04:44;92195.16;;;5.08;100.00
73941;BME280;62294;48.554;10.202;2023-04-25T00:07:11;92192.31;;;5.28;100.00
73941;BME280;62294;48.554;10.202;2023-04-25T00:09:39;92167.72;;;5.37;100.00
73941;BME280;62294;48.554;10.202;2023-04-25T00:12:06;92140.22;;;5.48;100.00
73941;BME280;62294;48.554;10.202;2023-04-25T00:14:32;92097.03;;;5.68;100.00
73941;BME280;62294;48.554;10.202;2023-04-25T00:17:02;92102.38;;;5.82;100.00
73941;BME280;62294;48.554;10.202;2023-04-25T00:19:29;92116.72;;;5.70;100.00
73941;BME280;62294;48.554;10.202;2023-04-25T00:21:55;92148.63;;;5.69;100.00
73941;BME280;62294;48.554;10.202;2023-04-25T00:24:22;92171.34;;;5.65;100.00
73941;BME280;62294;48.554;10.202;2023-04-25T00:26:49;92183.78;;;5.59;100.00
73941;BME280;62294;48.554;10.202;2023-04-25T00:29:15;92194.81;;;5.61;100.00
73941;BME280;62294;48.554;10.202;2023-04-25T00:31:42;92205.59;;;5.65;100.00
73941;BME280;62294;48.554;10.202;2023-04-25T00:34:09;92216.84;;;5.70;100.00
73941;BME280;62294;48.554;10.202;2023-04-25T00:36:35;92222.09;;;5.70;100.00
73941;BME280;62294;48.554;10.202;2023-04-25T00:39:02;92240.88;;;5.64;100.00
73941;BME280;62294;48.554;10.202;2023-04-25T00:41:31;92258.72;;;5.48;100.00
73941;BME280;62294;48.554;10.202;2023-04-25T00:43:59;92251.31;;;5.50;100.00
73941;BME280;62294;48.554;10.202;2023-04-25T00:46:25;92267.50;;;5.39;100.00
73941;BME280;62294;48.554;10.202;2023-04-25T00:48:52;92274.66;;;5.33;100.00
73941;BME280;62294;48.554;10.202;2023-04-25T00:51:20;92255.63;;;5.41;100.00
73941;BME280;62294;48.554;10.202;2023-04-25T00:53:48;92244.88;;;5.38;100.00
73941;BME280;62294;48.554;10.202;2023-04-25T00:56:17;92257.41;;;5.22;100.00
73941;BME280;62294;48.554;10.202;2023-04-25T00:58:44;92276.56;;;4.99;100.00
73941;BME280;62294;48.554;10.202;2023-04-25T01:01:11;92291.44;;;4.80;100.00
73941;BME280;62294;48.554;10.202;2023-04-25T01:03:39;92295.75;;;4.66;100.00
73941;BME280;62294;48.554;10.202;2023-04-25T01:06:10;92309.31;;;4.44;100.00
73941;BME280;62294;48.554;10.202;2023-04-25T01:08:39;92329.75;;;4.03;100.00
73941;BME280;62294;48.554;10.202;2023-04-25T01:11:06;92328.47;;;3.86;100.00
73941;BME280;62294;48.554;10.202;2023-04-25T01:13:34;92305.84;;;3.95;100.00
73941;BME280;62294;48.554;10.202;2023-04-25T01:16:02;92274.00;;;4.11;100.00
73941;BME280;62294;48.554;10.202;2023-04-25T01:18:28;92252.13;;;4.26;100.00
73941;BME280;62294;48.554;10.202;2023-04-25T01:20:55;92244.22;;;4.26;100.00
73941;BME280;62294;48.554;10.202;2023-04-25T01:23:22;92254.56;;;4.07;100.00
73941;BME280;62294;48.554;10.202;2023-04-25T01:25:49;92244.56;;;4.14;100.00
73941;BME280;62294;48.554;10.202;2023-04-25T01:28:17;92221.91;;;4.23;100.00
73941;BME280;62294;48.554;10.202;2023-04-25T01:30:44;92211.38;;;4.28;100.00
73941;BME280;62294;48.554;10.202;2023-04-25T01:33:13;92195.78;;;4.37;100.00
73941;BME280;62294;48.554;10.202;2023-04-25T01:35:41;92180.78;;;4.43;100.00
73941;BME280;62294;48.554;10.202;2023-04-25T01:38:08;92179.16;;;4.47;100.00
73941;BME280;62294;48.554;10.202;2023-04-25T01:40:37;92170.63;;;4.60;100.00
73941;BME280;62294;48.554;10.202;2023-04-25T01:43:07;92165.31;;;4.65;100.00
73941;BME280;62294;48.554;10.202;2023-04-25T01:45:34;92160.25;;;4.73;100.00
73941;BME280;62294;48.554;10.202;2023-04-25T01:48:02;92146.72;;;4.85;100.00
73941;BME280;62294;48.554;10.202;2023-04-25T01:50:29;92148.72;;;4.93;100.00
73941;BME280;62294;48.554;10.202;2023-04-25T01:52:56;92149.75;;;4.97;100.00
73941;BME280;62294;48.554;10.202;2023-04-25T01:55:23;92163.41;;;4.99;100.00
73941;BME280;62294;48.554;10.202;2023-04-25T01:57:49;92166.00;;;5.04;100.00
73941;BME280;62294;48.554;10.202;2023-04-25T02:00:16;92178.25;;;4.90;100.00
73941;BME280;62294;48.554;10.202;2023-04-25T02:02:43;92195.22;;;4.74;100.00
73941;BME280;62294;48.554;10.202;2023-04-25T02:05:10;92190.44;;;4.81;100.00
73941;BME280;62294;48.554;10.202;2023-04-25T02:07:37;92189.84;;;4.84;100.00
73941;BME280;62294;48.554;10.202;2023-04-25T02:10:04;92186.19;;;4.85;100.00
73941;BME280;62294;48.554;10.202;2023-04-25T02:12:31;92183.00;;;4.88;100.00
73941;BME280;62294;48.554;10.202;2023-04-25T02:14:58;92195.94;;;4.79;100.00
73941;BME280;62294;48.554;10.202;2023-04-25T02:17:25;92202.50;;;4.82;100.00
73941;BME280;62294;48.554;10.202;2023-04-25T02:19:52;92192.44;;;4.89;100.00
73941;BME280;62294;48.554;10.202;2023-04-25T02:22:20;92190.59;;;4.89;100.00
73941;BME280;62294;48.554;10.202;2023-04-25T02:24:46;92198.00;;;4.87;100.00
73941;BME280;62294;48.554;10.202;2023-04-25T02:27:13;92201.22;;;4.79;100.00
73941;BME280;62294;48.554;10.202;2023-04-25T02:29:39;92185.66;;;4.83;100.00
73941;BME280;62294;48.554;10.202;2023-04-25T02:32:06;92165.88;;;4.90;100.00
73941;BME280;62294;48.554;10.202;2023-04-25T02:34:32;92155.47;;;5.04;100.00
73941;BME280;62294;48.554;10.202;2023-04-25T02:36:59;92148.09;;;5.06;100.00
73941;BME280;62294;48.554;10.202;2023-04-25T02:39:25;92147.63;;;4.99;100.00
73941;BME280;62294;48.554;10.202;2023-04-25T02:41:53;92148.41;;;4.99;100.00
73941;BME280;62294;48.554;10.202;2023-04-25T02:44:20;92121.94;;;5.15;100.00
73941;BME280;62294;48.554;10.202;2023-04-25T02:46:46;92117.06;;;5.27;100.00
73941;BME280;62294;48.554;10.202;2023-04-25T02:49:13;92129.13;;;5.28;100.00
73941;BME280;62294;48.554;10.202;2023-04-25T02:51:40;92141.09;;;5.20;100.00
73941;BME280;62294;48.554;10.202;2023-04-25T02:54:06;92151.31;;;4.98;100.00
73941;BME280;62294;48.554;10.202;2023-04-25T02:56:33;92157.16;;;4.95;100.00
73941;BME280;62294;48.554;10.202;2023-04-25T02:58:59;92152.19;;;4.88;100.00
73941;BME280;62294;48.554;10.202;2023-04-25T03:01:26;92151.44;;;4.88;100.00
73941;BME280;62294;48.554;10.202;2023-04-25T03:03:53;92138.50;;;4.91;100.00
73941;BME280;62294;48.554;10.202;2023-04-25T03:06:20;92133.84;;;4.83;100.00
73941;BME280;62294;48.554;10.202;2023-04-25T03:08:47;92127.84;;;4.78;100.00
73941;BME280;62294;48.554;10.202;2023-04-25T03:11:13;92110.34;;;4.92;100.00
73941;BME280;62294;48.554;10.202;2023-04-25T03:13:40;92100.81;;;4.96;100.00
73941;BME280;62294;48.554;10.202;2023-04-25T03:16:06;92094.66;;;5.06;100.00
73941;BME280;62294;48.554;10.202;2023-04-25T03:18:33;92088.16;;;4.98;100.00
73941;BME280;62294;48.554;10.202;2023-04-25T03:21:00;92085.47;;;5.03;100.00
73941;BME280;62294;48.554;10.202;2023-04-25T03:23:27;92084.97;;;5.01;100.00
73941;BME280;62294;48.554;10.202;2023-04-25T03:25:53;92068.94;;;4.97;100.00
73941;BME280;62294;48.554;10.202;2023-04-25T03:28:20;92071.53;;;5.02;100.00
73941;BME280;62294;48.554;10.202;2023-04-25T03:30:47;92065.22;;;5.03;100.00
73941;BME280;62294;48.554;10.202;2023-04-25T03:33:13;92063.63;;;5.02;100.00
73941;BME280;62294;48.554;10.202;2023-04-25T03:35:40;92057.53;;;5.07;100.00
73941;BME280;62294;48.554;10.202;2023-04-25T03:38:07;92069.19;;;5.01;100.00
73941;BME280;62294;48.554;10.202;2023-04-25T03:40:33;92065.13;;;4.90;100.00
73941;BME280;62294;48.554;10.202;2023-04-25T03:43:00;92065.66;;;4.87;100.00
73941;BME280;62294;48.554;10.202;2023-04-25T03:45:27;92060.41;;;4.87;100.00
73941;BME280;62294;48.554;10.202;2023-04-25T03:47:53;92054.94;;;4.83;100.00
73941;BME280;62294;48.554;10.202;2023-04-25T03:50:20;92767.06;;;4.68;100.00
73941;BME280;62294;48.554;10.202;2023-04-25T03:52:47;92774.16;;;4.62;100.00
73941;BME280;62294;48.554;10.202;2023-04-25T03:55:13;92760.25;;;4.72;100.00
73941;BME280;62294;48.554;10.202;2023-04-25T03:57:40;92768.66;;;4.69;100.00
73941;BME280;62294;48.554;10.202;2023-04-25T04:00:07;92764.44;;;4.58;100.00
73941;BME280;62294;48.554;10.202;2023-04-25T04:02:34;92756.78;;;4.61;100.00
73941;BME280;62294;48.554;10.202;2023-04-25T04:05:02;92750.22;;;4.64;100.00
73941;BME280;62294;48.554;10.202;2023-04-25T04:07:29;92743.66;;;4.66;100.00
73941;BME280;62294;48.554;10.202;2023-04-25T04:09:56;92744.44;;;4.67;100.00
73941;BME280;62294;48.554;10.202;2023-04-25T04:12:22;92751.28;;;4.68;100.00
73941;BME280;62294;48.554;10.202;2023-04-25T04:14:49;92758.66;;;4.56;100.00
73941;BME280;62294;48.554;10.202;2023-04-25T04:17:16;92759.97;;;4.53;100.00
73941;BME280;62294;48.554;10.202;2023-04-25T04:19:42;92751.78;;;4.55;100.00
73941;BME280;62294;48.554;10.202;2023-04-25T04:22:08;92741.03;;;4.66;100.00
73941;BME280;62294;48.554;10.202;2023-04-25T04:24:36;92736.56;;;4.72;100.00
73941;BME280;62294;48.554;10.202;2023-04-25T04:27:02;92739.97;;;4.72;100.00
73941;BME280;62294;48.554;10.202;2023-04-25T04:29:29;92732.06;;;4.72;100.00
73941;BME280;62294;48.554;10.202;2023-04-25T04:31:56;92719.44;;;4.79;100.00
73941;BME280;62294;48.554;10.202;2023-04-25T04:34:22;92714.47;;;4.88;100.00
73941;BME280;62294;48.554;10.202;2023-04-25T04:36:50;92706.00;;;4.96;100.00
73941;BME280;62294;48.554;10.202;2023-04-25T04:39:17;92690.19;;;5.16;100.00
73941;BME280;62294;48.554;10.202;2023-04-25T04:41:44;92681.19;;;5.27;100.00
73941;BME280;62294;48.554;10.202;2023-04-25T04:44:10;92692.81;;;5.21;100.00
73941;BME280;62294;48.554;10.202;2023-04-25T04:46:37;92697.03;;;5.17;100.00
73941;BME280;62294;48.554;10.202;2023-04-25T04:49:09;92701.25;;;5.13;100.00
73941;BME280;62294;48.554;10.202;2023-04-25T04:51:36;92704.94;;;5.12;100.00
73941;BME280;62294;48.554;10.202;2023-04-25T04:54:03;92706.00;;;5.06;100.00
73941;BME280;62294;48.554;10.202;2023-04-25T04:56:30;92703.91;;;5.08;100.00
73941;BME280;62294;48.554;10.202;2023-04-25T04:58:57;92705.97;;;5.16;100.00
73941;BME280;62294;48.554;10.202;2023-04-25T05:01:25;92717.31;;;5.07;100.00
73941;BME280;62294;48.554;10.202;2023-04-25T05:03:52;92706.00;;;5.06;100.00
73941;BME280;62294;48.554;10.202;2023-04-25T05:06:20;92704.41;;;5.15;100.00
73941;BME280;62294;48.554;10.202;2023-04-25T05:08:47;92705.47;;;5.14;100.00
73941;BME280;62294;48.554;10.202;2023-04-25T05:11:13;92698.13;;;5.01;100.00
73941;BME280;62294;48.554;10.202;2023-04-25T05:13:40;92704.69;;;5.09;100.00
73941;BME280;62294;48.554;10.202;2023-04-25T05:16:07;92704.41;;;5.10;100.00
73941;BME280;62294;48.554;10.202;2023-04-25T05:18:33;92707.06;;;5.05;100.00
73941;BME280;62294;48.554;10.202;2023-04-25T05:21:00;92701.25;;;5.13;100.00
73941;BME280;62294;48.554;10.202;2023-04-25T05:23:27;92682.78;;;5.28;100.00
73941;BME280;62294;48.554;10.202;2023-04-25T05:25:54;92651.56;;;5.65;100.00
73941;BME280;62294;48.554;10.202;2023-04-25T05:28:21;92638.56;;;5.84;100.00
73941;BME280;62294;48.554;10.202;2023-04-25T05:30:48;92618.94;;;6.05;100.00
73941;BME280;62294;48.554;10.202;2023-04-25T05:33:14;92612.59;;;6.11;100.00
73941;BME280;62294;48.554;10.202;2023-04-25T05:35:42;92619.50;;;6.02;100.00
73941;BME280;62294;48.554;10.202;2023-04-25T05:38:08;92634.03;;;5.95;100.00
73941;BME280;62294;48.554;10.202;2023-04-25T05:40:35;92636.09;;;6.03;100.00
73941;BME280;62294;48.554;10.202;2023-04-25T05:43:02;92646.56;;;6.13;100.00
73941;BME280;62294;48.554;10.202;2023-04-25T05:45:28;92666.13;;;6.07;100.00
73941;BME280;62294;48.554;10.202;2023-04-25T05:47:55;92674.28;;;6.10;100.00
73941;BME280;62294;48.554;10.202;2023-04-25T05:50:22;92688.81;;;6.03;100.00
73941;BME280;62294;48.554;10.202;2023-04-25T05:52:50;92696.50;;;5.94;100.00
73941;BME280;62294;48.554;10.202;2023-04-25T05:55:16;92684.78;;;6.20;100.00
73941;BME280;62294;48.554;10.202;2023-04-25T05:57:43;92703.03;;;6.07;100.00
73941;BME280;62294;48.554;10.202;2023-04-25T06:00:12;92713.84;;;6.05;100.00
73941;BME280;62294;48.554;10.202;2023-04-25T06:02:39;92728.41;;;5.93;100.00
73941;BME280;62294;48.554;10.202;2023-04-25T06:05:07;92724.28;;;6.25;100.00
73941;BME280;62294;48.554;10.202;2023-04-25T06:07:34;92691.44;;;6.47;100.00
73941;BME280;62294;48.554;10.202;2023-04-25T06:10:00;92725.06;;;6.26;100.00
73941;BME280;62294;48.554;10.202;2023-04-25T06:12:27;92731.94;;;6.27;100.00
73941;BME280;62294;48.554;10.202;2023-04-25T06:14:53;92730.03;;;6.32;100.00
73941;BME280;62294;48.554;10.202;2023-04-25T06:17:20;92739.50;;;6.38;100.00
73941;BME280;62294;48.554;10.202;2023-04-25T06:19:47;92729.13;;;6.52;100.00
73941;BME280;62294;48.554;10.202;2023-04-25T06:22:13;92738.09;;;6.51;100.00
73941;BME280;62294;48.554;10.202;2023-04-25T06:24:40;92735.28;;;6.76;100.00
73941;BME280;62294;48.554;10.202;2023-04-25T06:27:06;92761.19;;;6.69;100.00
73941;BME280;62294;48.554;10.202;2023-04-25T06:29:33;92773.34;;;6.65;100.00
73941;BME280;62294;48.554;10.202;2023-04-25T06:32:00;92776.00;;;6.65;100.00
73941;BME280;62294;48.554;10.202;2023-04-25T06:34:26;92801.41;;;6.51;100.00
73941;BME280;62294;48.554;10.202;2023-04-25T06:36:52;92799.50;;;6.62;100.00
73941;BME280;62294;48.554;10.202;2023-04-25T06:39:19;92798.44;;;6.63;100.00
73941;BME280;62294;48.554;10.202;2023-04-25T06:41:46;92792.81;;;6.79;100.00
73941;BME280;62294;48.554;10.202;2023-04-25T06:44:13;92792.72;;;6.89;100.00
73941;BME280;62294;48.554;10.202;2023-04-25T06:46:39;92807.03;;;6.78;100.00
73941;BME280;62294;48.554;10.202;2023-04-25T06:49:06;92821.16;;;6.59;100.00
73941;BME280;62294;48.554;10.202;2023-04-25T06:51:33;92823.72;;;6.69;100.00
73941;BME280;62294;48.554;10.202;2023-04-25T06:53:59;92840.66;;;6.63;100.00
73941;BME280;62294;48.554;10.202;2023-04-25T06:56:28;92830.28;;;6.76;100.00
73941;BME280;62294;48.554;10.202;2023-04-25T06:58:55;92837.66;;;6.79;100.00
73941;BME280;62294;48.554;10.202;2023-04-25T07:01:22;92831.97;;;7.01;100.00
73941;BME280;62294;48.554;10.202;2023-04-25T07:03:49;92817.38;;;7.42;100.00
73941;BME280;62294;48.554;10.202;2023-04-25T07:06:16;92834.69;;;7.30;100.00
73941;BME280;62294;48.554;10.202;2023-04-25T07:08:43;92815.25;;;7.73;100.00
73941;BME280;62294;48.554;10.202;2023-04-25T07:11:09;92836.63;;;7.76;100.00
73941;BME280;62294;48.554;10.202;2023-04-25T07:13:36;92855.03;;;7.86;100.00
73941;BME280;62294;48.554;10.202;2023-04-25T07:16:03;92849.09;;;8.47;100.00
73941;BME280;62294;48.554;10.202;2023-04-25T07:18:30;92852.09;;;8.83;100.00
73941;BME280;62294;48.554;10.202;2023-04-25T07:20:57;92880.59;;;8.91;100.00
73941;BME280;62294;48.554;10.202;2023-04-25T07:23:23;92917.75;;;9.04;100.00
73941;BME280;62294;48.554;10.202;2023-04-25T07:25:50;92961.69;;;8.87;100.00
73941;BME280;62294;48.554;10.202;2023-04-25T07:28:16;92975.03;;;8.77;100.00
73941;BME280;62294;48.554;10.202;2023-04-25T07:30:45;93031.13;;;8.21;100.00
73941;BME280;62294;48.554;10.202;2023-04-25T07:33:11;93027.84;;;8.39;100.00
73941;BME280;62294;48.554;10.202;2023-04-25T07:35:38;92992.56;;;9.15;100.00
73941;BME280;62294;48.554;10.202;2023-04-25T07:38:05;93072.38;;;8.27;100.00
73941;BME280;62294;48.554;10.202;2023-04-25T07:40:32;93098.44;;;7.61;100.00
73941;BME280;62294;48.554;10.202;2023-04-25T07:43:00;93089.13;;;7.69;100.00
73941;BME280;62294;48.554;10.202;2023-04-25T07:45:27;93074.88;;;8.09;100.00
73941;BME280;62294;48.554;10.202;2023-04-25T07:47:53;93038.81;;;8.80;100.00
73941;BME280;62294;48.554;10.202;2023-04-25T07:50:21;93050.25;;;8.99;100.00
73941;BME280;62294;48.554;10.202;2023-04-25T07:52:48;93092.47;;;8.91;100.00
73941;BME280;62294;48.554;10.202;2023-04-25T07:55:14;93102.31;;;8.56;100.00
73941;BME280;62294;48.554;10.202;2023-04-25T07:57:41;93115.50;;;8.28;100.00
73941;BME280;62294;48.554;10.202;2023-04-25T08:00:08;93113.44;;;8.15;100.00
73941;BME280;62294;48.554;10.202;2023-04-25T08:02:37;93119.63;;;8.00;100.00
73941;BME280;62294;48.554;10.202;2023-04-25T08:05:04;93101.44;;;7.88;100.00
73941;BME280;62294;48.554;10.202;2023-04-25T08:07:33;93095.13;;;7.84;100.00
73941;BME280;62294;48.554;10.202;2023-04-25T08:10:00;93051.50;;;8.21;100.00
73941;BME280;62294;48.554;10.202;2023-04-25T08:12:26;93021.72;;;8.68;100.00
73941;BME280;62294;48.554;10.202;2023-04-25T08:14:53;93010.75;;;9.03;100.00
73941;BME280;62294;48.554;10.202;2023-04-25T08:17:19;92997.06;;;9.38;100.00
73941;BME280;62294;48.554;10.202;2023-04-25T08:19:46;92998.25;;;9.69;100.00
73941;BME280;62294;48.554;10.202;2023-04-25T08:22:13;93004.03;;;9.90;100.00
73941;BME280;62294;48.554;10.202;2023-04-25T08:24:39;93011.34;;;10.17;100.00
73941;BME280;62294;48.554;10.202;2023-04-25T08:27:06;93055.47;;;10.13;100.00
73941;BME280;62294;48.554;10.202;2023-04-25T08:29:34;93070.81;;;10.48;100.00
73941;BME280;62294;48.554;10.202;2023-04-25T08:32:01;93141.03;;;10.23;100.00
73941;BME280;62294;48.554;10.202;2023-04-25T08:34:27;93155.78;;;10.29;100.00
73941;BME280;62294;48.554;10.202;2023-04-25T08:36:54;93142.09;;;10.92;100.00
73941;BME280;62294;48.554;10.202;2023-04-25T08:39:20;93152.91;;;11.41;100.00
73941;BME280;62294;48.554;10.202;2023-04-25T08:41:48;93161.47;;;11.70;100.00
73941;BME280;62294;48.554;10.202;2023-04-25T08:44:14;93237.66;;;11.48;100.00
73941;BME280;62294;48.554;10.202;2023-04-25T08:46:44;93320.97;;;9.69;100.00
73941;BME280;62294;48.554;10.202;2023-04-25T08:49:17;93250.16;;;10.59;100.00
73941;BME280;62294;48.554;10.202;2023-04-25T08:51:45;93250.59;;;10.85;100.00
73941;BME280;62294;48.554;10.202;2023-04-25T08:54:20;93261.72;;;11.05;100.00
73941;BME280;62294;48.554;10.202;2023-04-25T08:57:01;93312.88;;;10.79;100.00
73941;BME280;62294;48.554;10.202;2023-04-25T08:59:29;93341.22;;;10.41;100.00
73941;BME280;62294;48.554;10.202;2023-04-25T09:01:57;93349.06;;;10.27;100.00
73941;BME280;62294;48.554;10.202;2023-04-25T09:04:24;93344.97;;;10.40;100.00
73941;BME280;62294;48.554;10.202;2023-04-25T09:06:51;93338.31;;;10.61;100.00
73941;BME280;62294;48.554;10.202;2023-04-25T09:09:18;93370.09;;;10.24;100.00
73941;BME280;62294;48.554;10.202;2023-04-25T09:11:44;93386.66;;;10.11;100.00
73941;BME280;62294;48.554;10.202;2023-04-25T09:14:18;93383.72;;;10.12;100.00
73941;BME280;62294;48.554;10.202;2023-04-25T09:19:23;93377.28;;;10.47;100.00
73941;BME280;62294;48.554;10.202;2023-04-25T09:22:06;93352.09;;;11.05;100.00
73941;BME280;62294;48.554;10.202;2023-04-25T09:24:35;93339.38;;;11.90;100.00
73941;BME280;62294;48.554;10.202;2023-04-25T09:27:04;93367.13;;;12.17;100.00
73941;BME280;62294;48.554;10.202;2023-04-25T09:29:35;93377.78;;;12.30;100.00
73941;BME280;62294;48.554;10.202;2023-04-25T09:32:24;93438.88;;;12.08;100.00
73941;BME280;62294;48.554;10.202;2023-04-25T09:34:52;93487.63;;;11.71;100.00
73941;BME280;62294;48.554;10.202;2023-04-25T09:37:24;93474.81;;;11.92;100.00
73941;BME280;62294;48.554;10.202;2023-04-25T09:42:23;93503.63;;;11.48;100.00
73941;BME280;62294;48.554;10.202;2023-04-25T09:44:52;93522.47;;;11.04;100.00
73941;BME280;62294;48.554;10.202;2023-04-25T09:47:21;93518.19;;;11.08;100.00
73941;BME280;62294;48.554;10.202;2023-04-25T09:49:50;93518.34;;;10.40;100.00
73941;BME280;62294;48.554;10.202;2023-04-25T09:52:22;93488.00;;;10.46;100.00
73941;BME280;62294;48.554;10.202;2023-04-25T09:54:51;93501.19;;;9.89;100.00
73941;BME280;62294;48.554;10.202;2023-04-25T09:57:22;93526.13;;;9.39;100.00
73941;BME280;62294;48.554;10.202;2023-04-25T09:59:53;93484.63;;;9.63;100.00
73941;BME280;62294;48.554;10.202;2023-04-25T10:02:23;93500.16;;;9.36;100.00
73941;BME280;62294;48.554;10.202;2023-04-25T10:04:52;93496.38;;;8.88;100.00
73941;BME280;62294;48.554;10.202;2023-04-25T10:07:24;93477.75;;;8.29;100.00
73941;BME280;62294;48.554;10.202;2023-04-25T10:09:58;93452.88;;;7.90;100.00
73941;BME280;62294;48.554;10.202;2023-04-25T10:12:31;93414.22;;;8.19;100.00
73941;BME280;62294;48.554;10.202;2023-04-25T10:14:59;93390.44;;;7.94;100.00
73941;BME280;62294;48.554;10.202;2023-04-25T10:17:28;93352.59;;;8.14;100.00
73941;BME280;62294;48.554;10.202;2023-04-25T10:19:55;93352.69;;;7.73;100.00
73941;BME280;62294;48.554;10.202;2023-04-25T10:22:39;93334.22;;;7.48;100.00
73941;BME280;62294;48.554;10.202;2023-04-25T10:25:08;93306.44;;;7.61;100.00
73941;BME280;62294;48.554;10.202;2023-04-25T10:27:36;93274.13;;;7.84;100.00
73941;BME280;62294;48.554;10.202;2023-04-25T10:32:32;93248.28;;;7.61;100.00
73941;BME280;62294;48.554;10.202;2023-04-25T10:37:37;93210.16;;;7.77;100.00
73941;BME280;62294;48.554;10.202;2023-04-25T10:40:09;93184.94;;;8.00;100.00
73941;BME280;62294;48.554;10.202;2023-04-25T10:42:36;93155.47;;;8.21;100.00
73941;BME280;62294;48.554;10.202;2023-04-25T10:45:06;93149.63;;;8.24;100.00
73941;BME280;62294;48.554;10.202;2023-04-25T10:47:37;93152.50;;;8.33;100.00
73941;BME280;62294;48.554;10.202;2023-04-25T10:50:10;93142.03;;;8.51;100.00
73941;BME280;62294;48.554;10.202;2023-04-25T10:52:38;93131.56;;;8.70;100.00
73941;BME280;62294;48.554;10.202;2023-04-25T10:55:06;93138.41;;;8.76;100.00
73941;BME280;62294;48.554;10.202;2023-04-25T10:57:41;93170.25;;;8.32;100.00
73941;BME280;62294;48.554;10.202;2023-04-25T11:00:13;93156.25;;;8.66;100.00
73941;BME280;62294;48.554;10.202;2023-04-25T11:05:09;93168.97;;;8.92;100.00
73941;BME280;62294;48.554;10.202;2023-04-25T11:07:55;93165.03;;;9.18;100.00
73941;BME280;62294;48.554;10.202;2023-04-25T11:10:46;93212.31;;;8.73;100.00
73941;BME280;62294;48.554;10.202;2023-04-25T11:13:16;93193.66;;;9.21;100.00
73941;BME280;62294;48.554;10.202;2023-04-25T11:15:43;93200.63;;;9.36;100.00
73941;BME280;62294;48.554;10.202;2023-04-25T11:18:09;93249.38;;;8.73;100.00
73941;BME280;62294;48.554;10.202;2023-04-25T11:20:36;93199.66;;;9.56;100.00
73941;BME280;62294;48.554;10.202;2023-04-25T11:23:04;93201.28;;;9.75;100.00
73941;BME280;62294;48.554;10.202;2023-04-25T11:25:30;93239.56;;;9.12;100.00
73941;BME280;62294;48.554;10.202;2023-04-25T11:27:59;93246.78;;;9.01;100.00
73941;BME280;62294;48.554;10.202;2023-04-25T11:30:27;93258.59;;;8.85;100.00
73941;BME280;62294;48.554;10.202;2023-04-25T11:32:56;93282.31;;;8.56;100.00
73941;BME280;62294;48.554;10.202;2023-04-25T11:35:23;93318.78;;;7.96;100.00
73941;BME280;62294;48.554;10.202;2023-04-25T11:37:51;93336.59;;;7.30;100.00
73941;BME280;62294;48.554;10.202;2023-04-25T11:40:19;93324.44;;;7.13;100.00
73941;BME280;62294;48.554;10.202;2023-04-25T11:42:46;93325.97;;;6.79;100.00
73941;BME280;62294;48.554;10.202;2023-04-25T11:45:14;93318.56;;;6.61;100.00
73941;BME280;62294;48.554;10.202;2023-04-25T11:47:41;93306.88;;;6.32;100.00
73941;BME280;62294;48.554;10.202;2023-04-25T11:50:08;93276.28;;;6.41;100.00
73941;BME280;62294;48.554;10.202;2023-04-25T11:55:04;93196.06;;;7.12;100.00
73941;BME280;62294;48.554;10.202;2023-04-25T11:57:35;93148.88;;;7.65;100.00
73941;BME280;62294;48.554;10.202;2023-04-25T12:02:35;93148.97;;;7.45;100.00
73941;BME280;62294;48.554;10.202;2023-04-25T12:05:06;93110.59;;;8.06;100.00
73941;BME280;62294;48.554;10.202;2023-04-25T12:07:55;93100.16;;;8.30;100.00
73941;BME280;62294;48.554;10.202;2023-04-25T12:10:24;93112.34;;;8.26;100.00
73941;BME280;62294;48.554;10.202;2023-04-25T12:12:51;93132.16;;;8.28;100.00
73941;BME280;62294;48.554;10.202;2023-04-25T12:15:25;93175.03;;;7.71;100.00
73941;BME280;62294;48.554;10.202;2023-04-25T12:17:53;93210.31;;;7.32;100.00
73941;BME280;62294;48.554;10.202;2023-04-25T12:20:24;93228.56;;;6.98;100.00
73941;BME280;62294;48.554;10.202;2023-04-25T12:22:52;93230.44;;;7.02;100.00
73941;BME280;62294;48.554;10.202;2023-04-25T12:25:42;93212.44;;;7.14;100.00
73941;BME280;62294;48.554;10.202;2023-04-25T12:28:15;93190.19;;;7.41;100.00
73941;BME280;62294;48.554;10.202;2023-04-25T12:31:18;93192.88;;;7.26;100.00
73941;BME280;62294;48.554;10.202;2023-04-25T12:33:45;93183.59;;;7.43;100.00
73941;BME280;62294;48.554;10.202;2023-04-25T12:36:14;93199.19;;;7.35;100.00
73941;BME280;62294;48.554;10.202;2023-04-25T12:38:43;93222.72;;;7.21;100.00
73941;BME280;62294;48.554;10.202;2023-04-25T12:41:09;93219.31;;;7.10;100.00
73941;BME280;62294;48.554;10.202;2023-04-25T12:43:36;93227.75;;;7.07;100.00
73941;BME280;62294;48.554;10.202;2023-04-25T12:46:03;93198.88;;;7.51;100.00
73941;BME280;62294;48.554;10.202;2023-04-25T12:48:29;93201.28;;;7.48;100.00
73941;BME280;62294;48.554;10.202;2023-04-25T12:50:56;93223.53;;;7.27;100.00
73941;BME280;62294;48.554;10.202;2023-04-25T12:53:23;93198.88;;;7.51;100.00
73941;BME280;62294;48.554;10.202;2023-04-25T12:55:52;93193.22;;;7.83;100.00
73941;BME280;62294;48.554;10.202;2023-04-25T12:58:19;93166.47;;;8.43;100.00
73941;BME280;62294;48.554;10.202;2023-04-25T13:00:46;93191.97;;;8.19;100.00
73941;BME280;62294;48.554;10.202;2023-04-25T13:03:13;93181.28;;;8.44;100.00
73941;BME280;62294;48.554;10.202;2023-04-25T13:05:40;93172.38;;;8.98;100.00
73941;BME280;62294;48.554;10.202;2023-04-25T13:08:07;93192.38;;;9.14;100.00
73941;BME280;62294;48.554;10.202;2023-04-25T13:10:34;93227.22;;;8.97;100.00